sensor_id;sensor_type;location;lat;lon;timestamp;pressure;altitude;pressure_sealevel;temperature;humidity
63663;BME280;49815;51.618;0.336;2022-12-07T00:01:31;101572.77;;;-1.04;73.77
63663;BME280;49815;51.618;0.336;2022-12-07T00:03:56;101567.81;;;-1.36;73.07
63663;BME280;49815;51.618;0.336;2022-12-07T00:06:20;101563.50;;;-0.67;72.36
63663;BME280;49815;51.618;0.336;2022-12-07T00:08:47;101558.22;;;-1.03;70.96
63663;BME280;49815;51.618;0.336;2022-12-07T00:11:13;101560.93;;;-0.34;70.35
63663;BME280;49815;51.618;0.336;2022-12-07T00:13:37;101563.16;;;-0.31;70.87
63663;BME280;49815;51.618;0.336;2022-12-07T00:16:04;101563.79;;;-0.91;69.91
63663;BME280;49815;51.618;0.336;2022-12-07T00:18:27;101566.03;;;0.19;68.85
63663;BME280;49815;51.618;0.336;2022-12-07T00:20:53;101565.23;;;-0.97;71.53
63663;BME280;49815;51.618;0.336;2022-12-07T00:23:18;101567.79;;;-0.71;71.64
63663;BME280;49815;51.618;0.336;2022-12-07T00:25:45;101569.00;;;-0.07;70.39
63663;BME280;49815;51.618;0.336;2022-12-07T00:28:09;101568.13;;;0.30;67.39
63663;BME280;49815;51.618;0.336;2022-12-07T00:30:34;101566.23;;;-0.09;68.47
63663;BME280;49815;51.618;0.336;2022-12-07T00:33:00;101564.50;;;-0.93;69.85
63663;BME280;49815;51.618;0.336;2022-12-07T00:35:25;101562.89;;;-1.17;73.28
63663;BME280;49815;51.618;0.336;2022-12-07T00:37:50;101562.96;;;-1.28;74.03
63663;BME280;49815;51.618;0.336;2022-12-07T00:40:16;101570.35;;;-1.62;74.40
63663;BME280;49815;51.618;0.336;2022-12-07T00:42:41;101566.08;;;-1.78;72.60
63663;BME280;49815;51.618;0.336;2022-12-07T00:45:08;101565.09;;;-0.36;69.80
63663;BME280;49815;51.618;0.336;2022-12-07T00:47:33;101562.15;;;-0.33;69.52
63663;BME280;49815;51.618;0.336;2022-12-07T00:49:58;101559.61;;;-0.22;69.37
63663;BME280;49815;51.618;0.336;2022-12-07T00:52:23;101557.06;;;-0.67;69.47
63663;BME280;49815;51.618;0.336;2022-12-07T00:54:48;101553.24;;;-1.07;69.48
63663;BME280;49815;51.618;0.336;2022-12-07T00:57:14;101558.70;;;-0.13;68.05
63663;BME280;49815;51.618;0.336;2022-12-07T00:59:39;101553.09;;;0.46;66.35
63663;BME280;49815;51.618;0.336;2022-12-07T01:02:05;101555.36;;;0.15;66.97
63663;BME280;49815;51.618;0.336;2022-12-07T01:04:30;101556.38;;;0.08;65.49
63663;BME280;49815;51.618;0.336;2022-12-07T01:06:55;101546.37;;;-0.00;65.21
63663;BME280;49815;51.618;0.336;2022-12-07T01:09:21;101549.89;;;-0.16;67.18
63663;BME280;49815;51.618;0.336;2022-12-07T01:11:47;101544.65;;;-0.76;69.05
63663;BME280;49815;51.618;0.336;2022-12-07T01:14:12;101546.25;;;-0.03;67.29
63663;BME280;49815;51.618;0.336;2022-12-07T01:16:38;101540.52;;;0.82;64.71
63663;BME280;49815;51.618;0.336;2022-12-07T01:19:03;101536.18;;;0.16;63.85
63663;BME280;49815;51.618;0.336;2022-12-07T01:21:30;101530.98;;;-0.78;68.51
63663;BME280;49815;51.618;0.336;2022-12-07T01:23:54;101529.78;;;0.31;67.63
63663;BME280;49815;51.618;0.336;2022-12-07T01:26:21;101530.88;;;-0.97;68.79
63663;BME280;49815;51.618;0.336;2022-12-07T01:28:45;101530.13;;;-0.42;66.30
63663;BME280;49815;51.618;0.336;2022-12-07T01:31:12;101519.03;;;1.09;63.63
63663;BME280;49815;51.618;0.336;2022-12-07T01:33:36;101523.24;;;0.32;65.45
63663;BME280;49815;51.618;0.336;2022-12-07T01:36:02;101522.24;;;0.92;64.14
63663;BME280;49815;51.618;0.336;2022-12-07T01:38:26;101525.25;;;0.42;63.68
63663;BME280;49815;51.618;0.336;2022-12-07T01:40:55;101527.50;;;0.37;64.45
63663;BME280;49815;51.618;0.336;2022-12-07T01:43:22;101522.38;;;1.09;62.47
63663;BME280;49815;51.618;0.336;2022-12-07T01:45:42;101530.23;;;-0.03;64.51
63663;BME280;49815;51.618;0.336;2022-12-07T01:48:09;101525.54;;;0.88;62.59
63663;BME280;49815;51.618;0.336;2022-12-07T01:50:33;101528.94;;;1.07;63.04
63663;BME280;49815;51.618;0.336;2022-12-07T01:53:00;101535.47;;;-0.01;66.30
63663;BME280;49815;51.618;0.336;2022-12-07T01:55:24;101529.17;;;0.91;64.41
63663;BME280;49815;51.618;0.336;2022-12-07T01:57:52;101530.92;;;1.62;61.83
63663;BME280;49815;51.618;0.336;2022-12-07T02:00:16;101542.07;;;0.19;65.70
63663;BME280;49815;51.618;0.336;2022-12-07T02:02:44;101540.89;;;0.02;66.84
63663;BME280;49815;51.618;0.336;2022-12-07T02:05:06;101538.10;;;-0.77;69.38
63663;BME280;49815;51.618;0.336;2022-12-07T02:07:31;101538.95;;;-1.07;70.52
63663;BME280;49815;51.618;0.336;2022-12-07T02:09:56;101540.02;;;-1.09;70.57
63663;BME280;49815;51.618;0.336;2022-12-07T02:12:23;101543.21;;;-0.80;69.36
63663;BME280;49815;51.618;0.336;2022-12-07T02:14:48;101544.71;;;-0.41;68.13
63663;BME280;49815;51.618;0.336;2022-12-07T02:17:18;101538.46;;;1.10;63.86
63663;BME280;49815;51.618;0.336;2022-12-07T02:20:00;101539.24;;;0.95;63.23
63663;BME280;49815;51.618;0.336;2022-12-07T02:22:12;101544.25;;;-0.12;64.10
63663;BME280;49815;51.618;0.336;2022-12-07T02:24:45;101552.24;;;-0.47;66.66
63663;BME280;49815;51.618;0.336;2022-12-07T02:27:09;101553.25;;;-0.55;67.93
63663;BME280;49815;51.618;0.336;2022-12-07T02:29:23;101553.85;;;-0.68;67.78
63663;BME280;49815;51.618;0.336;2022-12-07T02:31:49;101551.16;;;-0.82;69.26
63663;BME280;49815;51.618;0.336;2022-12-07T02:34:18;101550.78;;;-1.53;71.08
63663;BME280;49815;51.618;0.336;2022-12-07T02:36:40;101547.65;;;-0.08;68.95
63663;BME280;49815;51.618;0.336;2022-12-07T02:39:05;101542.16;;;-0.78;70.48
63663;BME280;49815;51.618;0.336;2022-12-07T02:41:28;101544.04;;;0.09;68.22
63663;BME280;49815;51.618;0.336;2022-12-07T02:43:54;101541.65;;;-1.59;70.37
63663;BME280;49815;51.618;0.336;2022-12-07T02:46:20;101541.49;;;-0.45;70.78
63663;BME280;49815;51.618;0.336;2022-12-07T02:48:43;101542.84;;;-0.13;67.63
63663;BME280;49815;51.618;0.336;2022-12-07T02:51:07;101544.68;;;-0.24;67.85
63663;BME280;49815;51.618;0.336;2022-12-07T02:53:34;101540.87;;;-0.45;66.81
63663;BME280;49815;51.618;0.336;2022-12-07T02:55:59;101542.90;;;-1.99;72.38
63663;BME280;49815;51.618;0.336;2022-12-07T02:58:31;101538.55;;;0.01;69.47
63663;BME280;49815;51.618;0.336;2022-12-07T03:00:54;101543.65;;;-0.97;71.17
63663;BME280;49815;51.618;0.336;2022-12-07T03:03:15;101531.52;;;-0.15;69.32
63663;BME280;49815;51.618;0.336;2022-12-07T03:05:51;101524.94;;;0.58;65.72
63663;BME280;49815;51.618;0.336;2022-12-07T03:08:12;101524.27;;;0.56;64.85
63663;BME280;49815;51.618;0.336;2022-12-07T03:10:36;101523.88;;;0.06;67.42
63663;BME280;49815;51.618;0.336;2022-12-07T03:13:04;101519.73;;;-0.39;67.94
63663;BME280;49815;51.618;0.336;2022-12-07T03:15:26;101517.56;;;0.39;65.49
63663;BME280;49815;51.618;0.336;2022-12-07T03:17:49;101523.48;;;-1.34;68.36
63663;BME280;49815;51.618;0.336;2022-12-07T03:20:15;101529.38;;;-1.06;71.43
63663;BME280;49815;51.618;0.336;2022-12-07T03:22:40;101526.40;;;-1.07;70.68
63663;BME280;49815;51.618;0.336;2022-12-07T03:25:07;101527.65;;;-0.69;69.13
63663;BME280;49815;51.618;0.336;2022-12-07T03:27:34;101532.56;;;-0.16;68.85
63663;BME280;49815;51.618;0.336;2022-12-07T03:29:59;101522.25;;;-1.42;69.92
63663;BME280;49815;51.618;0.336;2022-12-07T03:32:24;101522.55;;;-1.20;70.34
63663;BME280;49815;51.618;0.336;2022-12-07T03:34:48;101523.70;;;-0.33;68.91
63663;BME280;49815;51.618;0.336;2022-12-07T03:37:15;101517.26;;;0.12;66.61
63663;BME280;49815;51.618;0.336;2022-12-07T03:39:41;101520.61;;;-0.05;67.41
63663;BME280;49815;51.618;0.336;2022-12-07T03:42:03;101517.33;;;0.49;65.13
63663;BME280;49815;51.618;0.336;2022-12-07T03:44:27;101517.07;;;0.53;65.25
63663;BME280;49815;51.618;0.336;2022-12-07T03:46:59;101517.53;;;-0.95;70.18
63663;BME280;49815;51.618;0.336;2022-12-07T03:49:23;101513.19;;;-1.02;70.78
63663;BME280;49815;51.618;0.336;2022-12-07T03:51:49;101521.16;;;-0.71;69.22
63663;BME280;49815;51.618;0.336;2022-12-07T03:54:14;101516.18;;;-0.73;69.94
63663;BME280;49815;51.618;0.336;2022-12-07T03:56:35;101516.36;;;-0.60;69.12
63663;BME280;49815;51.618;0.336;2022-12-07T03:59:00;101517.34;;;-2.00;72.19
63663;BME280;49815;51.618;0.336;2022-12-07T04:01:25;101513.56;;;-1.40;72.98
63663;BME280;49815;51.618;0.336;2022-12-07T04:03:51;101515.04;;;-1.39;70.64
63663;BME280;49815;51.618;0.336;2022-12-07T04:06:16;101513.10;;;-1.82;73.35
63663;BME280;49815;51.618;0.336;2022-12-07T04:08:41;101510.33;;;-1.23;72.11
63663;BME280;49815;51.618;0.336;2022-12-07T04:11:06;101511.10;;;-0.89;71.20
63663;BME280;49815;51.618;0.336;2022-12-07T04:13:32;101511.41;;;-0.10;68.73
63663;BME280;49815;51.618;0.336;2022-12-07T04:15:57;101511.26;;;-0.73;68.69
63663;BME280;49815;51.618;0.336;2022-12-07T04:18:22;101513.89;;;-0.87;70.57
63663;BME280;49815;51.618;0.336;2022-12-07T04:20:48;101509.91;;;-0.79;69.99
63663;BME280;49815;51.618;0.336;2022-12-07T04:23:13;101511.40;;;-0.32;67.76
63663;BME280;49815;51.618;0.336;2022-12-07T04:25:40;101511.77;;;-0.60;69.85
63663;BME280;49815;51.618;0.336;2022-12-07T04:28:04;101518.32;;;-2.15;71.62
63663;BME280;49815;51.618;0.336;2022-12-07T04:30:30;101512.95;;;-1.18;69.45
63663;BME280;49815;51.618;0.336;2022-12-07T04:32:55;101510.49;;;-1.60;71.49
63663;BME280;49815;51.618;0.336;2022-12-07T04:35:21;101502.71;;;-1.14;71.14
63663;BME280;49815;51.618;0.336;2022-12-07T04:37:47;101508.65;;;-0.04;67.30
63663;BME280;49815;51.618;0.336;2022-12-07T04:40:12;101509.43;;;-1.54;71.51
63663;BME280;49815;51.618;0.336;2022-12-07T04:42:38;101505.38;;;-1.00;71.21
63663;BME280;49815;51.618;0.336;2022-12-07T04:45:04;101503.02;;;-1.10;70.97
63663;BME280;49815;51.618;0.336;2022-12-07T04:47:29;101501.85;;;-0.01;67.56
63663;BME280;49815;51.618;0.336;2022-12-07T04:49:55;101500.10;;;-1.22;69.56
63663;BME280;49815;51.618;0.336;2022-12-07T04:52:20;101494.71;;;-1.54;70.83
63663;BME280;49815;51.618;0.336;2022-12-07T04:54:46;101491.62;;;-1.42;71.97
63663;BME280;49815;51.618;0.336;2022-12-07T04:57:11;101489.64;;;-1.63;72.39
63663;BME280;49815;51.618;0.336;2022-12-07T04:59:36;101487.31;;;-0.35;68.55
63663;BME280;49815;51.618;0.336;2022-12-07T05:02:02;101487.58;;;-1.63;71.20
63663;BME280;49815;51.618;0.336;2022-12-07T05:04:27;101480.99;;;-0.95;70.46
63663;BME280;49815;51.618;0.336;2022-12-07T05:06:52;101482.18;;;-1.28;71.49
63663;BME280;49815;51.618;0.336;2022-12-07T05:09:18;101480.58;;;-1.32;69.69
63663;BME280;49815;51.618;0.336;2022-12-07T05:11:43;101479.67;;;-0.95;69.36
63663;BME280;49815;51.618;0.336;2022-12-07T05:14:12;101481.33;;;-2.24;73.02
63663;BME280;49815;51.618;0.336;2022-12-07T05:16:33;101483.48;;;-1.56;72.64
63663;BME280;49815;51.618;0.336;2022-12-07T05:18:59;101488.12;;;-1.56;71.99
63663;BME280;49815;51.618;0.336;2022-12-07T05:21:24;101488.01;;;-2.52;75.90
63663;BME280;49815;51.618;0.336;2022-12-07T05:23:50;101485.00;;;-1.65;73.18
63663;BME280;49815;51.618;0.336;2022-12-07T05:26:15;101477.93;;;-1.12;71.70
63663;BME280;49815;51.618;0.336;2022-12-07T05:28:41;101481.81;;;-1.57;71.98
63663;BME280;49815;51.618;0.336;2022-12-07T05:31:06;101476.07;;;-1.83;72.72
63663;BME280;49815;51.618;0.336;2022-12-07T05:33:31;101470.95;;;-1.78;73.36
63663;BME280;49815;51.618;0.336;2022-12-07T05:35:57;101471.91;;;-2.28;72.97
63663;BME280;49815;51.618;0.336;2022-12-07T05:38:23;101476.17;;;-2.03;73.60
63663;BME280;49815;51.618;0.336;2022-12-07T05:40:48;101473.68;;;-0.69;69.30
63663;BME280;49815;51.618;0.336;2022-12-07T05:43:14;101476.98;;;-1.74;72.18
63663;BME280;49815;51.618;0.336;2022-12-07T05:45:39;101464.06;;;-1.54;71.44
63663;BME280;49815;51.618;0.336;2022-12-07T05:48:04;101467.37;;;-2.28;72.62
63663;BME280;49815;51.618;0.336;2022-12-07T05:50:30;101461.59;;;-1.77;73.87
63663;BME280;49815;51.618;0.336;2022-12-07T05:52:55;101456.46;;;-1.14;70.49
63663;BME280;49815;51.618;0.336;2022-12-07T05:55:21;101464.21;;;-1.92;71.10
63663;BME280;49815;51.618;0.336;2022-12-07T05:57:46;101466.36;;;-2.24;73.82
63663;BME280;49815;51.618;0.336;2022-12-07T06:00:12;101458.67;;;-1.27;70.39
63663;BME280;49815;51.618;0.336;2022-12-07T06:02:37;101455.19;;;-1.69;71.49
63663;BME280;49815;51.618;0.336;2022-12-07T06:05:02;101454.16;;;-2.04;71.80
63663;BME280;49815;51.618;0.336;2022-12-07T06:07:27;101457.13;;;-2.23;74.47
63663;BME280;49815;51.618;0.336;2022-12-07T06:09:53;101458.18;;;-1.99;74.97
63663;BME280;49815;51.618;0.336;2022-12-07T06:12:18;101453.77;;;-1.90;72.87
63663;BME280;49815;51.618;0.336;2022-12-07T06:14:44;101454.10;;;-1.36;71.36
63663;BME280;49815;51.618;0.336;2022-12-07T06:17:10;101451.23;;;-1.66;72.05
63663;BME280;49815;51.618;0.336;2022-12-07T06:19:34;101455.25;;;-2.27;73.11
63663;BME280;49815;51.618;0.336;2022-12-07T06:21:59;101452.83;;;-1.72;72.55
63663;BME280;49815;51.618;0.336;2022-12-07T06:24:24;101451.52;;;-2.22;73.89
63663;BME280;49815;51.618;0.336;2022-12-07T06:26:50;101445.33;;;-2.41;73.53
63663;BME280;49815;51.618;0.336;2022-12-07T06:29:17;101445.59;;;-1.37;71.91
63663;BME280;49815;51.618;0.336;2022-12-07T06:31:41;101455.42;;;-2.46;74.54
63663;BME280;49815;51.618;0.336;2022-12-07T06:34:09;101458.34;;;-1.94;75.19
63663;BME280;49815;51.618;0.336;2022-12-07T06:36:32;101458.35;;;-2.20;74.12
63663;BME280;49815;51.618;0.336;2022-12-07T06:38:57;101450.61;;;-1.02;72.22
63663;BME280;49815;51.618;0.336;2022-12-07T06:41:22;101450.75;;;-1.83;74.53
63663;BME280;49815;51.618;0.336;2022-12-07T06:43:48;101454.28;;;-2.06;72.79
63663;BME280;49815;51.618;0.336;2022-12-07T06:46:14;101460.21;;;-1.94;72.79
63663;BME280;49815;51.618;0.336;2022-12-07T06:48:38;101462.17;;;-1.54;71.90
63663;BME280;49815;51.618;0.336;2022-12-07T06:51:04;101465.70;;;-1.79;72.03
63663;BME280;49815;51.618;0.336;2022-12-07T06:53:30;101471.78;;;-2.14;74.13
63663;BME280;49815;51.618;0.336;2022-12-07T06:55:55;101469.13;;;-1.87;71.68
63663;BME280;49815;51.618;0.336;2022-12-07T06:58:21;101466.70;;;-1.64;72.07
63663;BME280;49815;51.618;0.336;2022-12-07T07:00:48;101466.35;;;-0.61;68.52
63663;BME280;49815;51.618;0.336;2022-12-07T07:03:12;101467.14;;;-1.30;70.99
63663;BME280;49815;51.618;0.336;2022-12-07T07:05:38;101465.91;;;-0.33;68.27
63663;BME280;49815;51.618;0.336;2022-12-07T07:08:03;101464.67;;;-1.15;67.72
63663;BME280;49815;51.618;0.336;2022-12-07T07:10:29;101472.33;;;-0.46;66.49
63663;BME280;49815;51.618;0.336;2022-12-07T07:12:55;101472.23;;;-0.67;68.43
63663;BME280;49815;51.618;0.336;2022-12-07T07:15:20;101469.82;;;-1.67;70.16
63663;BME280;49815;51.618;0.336;2022-12-07T07:17:47;101470.16;;;-1.54;69.55
63663;BME280;49815;51.618;0.336;2022-12-07T07:20:12;101472.73;;;-1.80;71.99
63663;BME280;49815;51.618;0.336;2022-12-07T07:22:37;101470.29;;;-1.43;71.79
63663;BME280;49815;51.618;0.336;2022-12-07T07:25:03;101468.05;;;-1.52;68.41
63663;BME280;49815;51.618;0.336;2022-12-07T07:27:27;101474.31;;;-1.94;70.37
63663;BME280;49815;51.618;0.336;2022-12-07T07:29:54;101477.40;;;-2.86;73.54
63663;BME280;49815;51.618;0.336;2022-12-07T07:32:19;101475.10;;;-2.30;74.10
63663;BME280;49815;51.618;0.336;2022-12-07T07:34:44;101476.11;;;-1.75;71.13
63663;BME280;49815;51.618;0.336;2022-12-07T07:37:10;101472.82;;;-1.56;69.92
63663;BME280;49815;51.618;0.336;2022-12-07T07:39:35;101472.60;;;-1.30;68.32
63663;BME280;49815;51.618;0.336;2022-12-07T07:42:01;101483.74;;;-0.77;67.37
63663;BME280;49815;51.618;0.336;2022-12-07T07:44:26;101485.94;;;-1.25;68.38
63663;BME280;49815;51.618;0.336;2022-12-07T07:46:52;101478.81;;;-0.96;66.56
63663;BME280;49815;51.618;0.336;2022-12-07T07:49:17;101477.14;;;-1.29;68.22
63663;BME280;49815;51.618;0.336;2022-12-07T07:51:43;101476.88;;;0.08;62.82
63663;BME280;49815;51.618;0.336;2022-12-07T07:54:09;101481.27;;;-1.25;66.96
63663;BME280;49815;51.618;0.336;2022-12-07T07:56:34;101487.72;;;-0.08;64.98
63663;BME280;49815;51.618;0.336;2022-12-07T07:59:00;101489.34;;;0.09;63.76
63663;BME280;49815;51.618;0.336;2022-12-07T08:01:26;101485.82;;;-0.70;63.80
63663;BME280;49815;51.618;0.336;2022-12-07T08:03:52;101488.56;;;-1.16;65.96
63663;BME280;49815;51.618;0.336;2022-12-07T08:06:17;101489.58;;;-1.60;66.32
63663;BME280;49815;51.618;0.336;2022-12-07T08:08:42;101494.20;;;-0.50;66.79
63663;BME280;49815;51.618;0.336;2022-12-07T08:11:09;101500.40;;;0.19;62.89
63663;BME280;49815;51.618;0.336;2022-12-07T08:13:34;101497.39;;;0.80;60.58
63663;BME280;49815;51.618;0.336;2022-12-07T08:16:03;101504.77;;;-0.11;62.66
63663;BME280;49815;51.618;0.336;2022-12-07T08:18:25;101506.15;;;-1.86;66.32
63663;BME280;49815;51.618;0.336;2022-12-07T08:20:51;101502.17;;;-0.36;63.30
63663;BME280;49815;51.618;0.336;2022-12-07T08:23:16;101499.39;;;0.07;62.16
63663;BME280;49815;51.618;0.336;2022-12-07T08:25:42;101492.45;;;0.61;60.70
63663;BME280;49815;51.618;0.336;2022-12-07T08:28:07;101495.28;;;0.25;59.66
63663;BME280;49815;51.618;0.336;2022-12-07T08:30:33;101503.02;;;-0.53;60.99
63663;BME280;49815;51.618;0.336;2022-12-07T08:32:58;101493.78;;;0.39;60.28
63663;BME280;49815;51.618;0.336;2022-12-07T08:35:24;101498.77;;;-1.23;62.74
63663;BME280;49815;51.618;0.336;2022-12-07T08:37:49;101494.56;;;0.49;60.75
63663;BME280;49815;51.618;0.336;2022-12-07T08:40:15;101496.35;;;0.31;60.18
63663;BME280;49815;51.618;0.336;2022-12-07T08:42:40;101491.27;;;-0.09;60.80
63663;BME280;49815;51.618;0.336;2022-12-07T08:45:06;101482.79;;;0.59;59.96
63663;BME280;49815;51.618;0.336;2022-12-07T08:47:31;101485.23;;;0.03;60.43
63663;BME280;49815;51.618;0.336;2022-12-07T08:49:57;101491.38;;;-0.59;62.14
63663;BME280;49815;51.618;0.336;2022-12-07T08:52:23;101493.87;;;0.15;60.87
63663;BME280;49815;51.618;0.336;2022-12-07T08:54:48;101496.58;;;-0.86;61.65
63663;BME280;49815;51.618;0.336;2022-12-07T08:57:14;101493.76;;;-0.08;63.03
63663;BME280;49815;51.618;0.336;2022-12-07T08:59:39;101489.08;;;-0.72;62.40
63663;BME280;49815;51.618;0.336;2022-12-07T09:02:06;101479.46;;;1.13;58.72
63663;BME280;49815;51.618;0.336;2022-12-07T09:04:30;101473.38;;;1.33;57.93
63663;BME280;49815;51.618;0.336;2022-12-07T09:06:56;101485.28;;;-0.08;60.54
63663;BME280;49815;51.618;0.336;2022-12-07T09:09:21;101472.59;;;0.61;59.03
63663;BME280;49815;51.618;0.336;2022-12-07T09:11:47;101466.90;;;2.25;55.52
63663;BME280;49815;51.618;0.336;2022-12-07T09:14:12;101474.81;;;2.27;53.95
63663;BME280;49815;51.618;0.336;2022-12-07T09:16:37;101475.57;;;1.32;55.55
63663;BME280;49815;51.618;0.336;2022-12-07T09:19:03;101470.14;;;0.04;57.62
63663;BME280;49815;51.618;0.336;2022-12-07T09:21:29;101460.98;;;1.69;53.85
63663;BME280;49815;51.618;0.336;2022-12-07T09:23:56;101459.68;;;1.95;51.92
63663;BME280;49815;51.618;0.336;2022-12-07T09:28:45;101457.14;;;1.59;50.99
63663;BME280;49815;51.618;0.336;2022-12-07T09:31:11;101466.14;;;-0.12;54.19
63663;BME280;49815;51.618;0.336;2022-12-07T09:33:36;101464.33;;;-0.32;56.98
63663;BME280;49815;51.618;0.336;2022-12-07T09:36:01;101460.58;;;0.83;53.67
63663;BME280;49815;51.618;0.336;2022-12-07T09:40:55;101466.89;;;1.07;53.80
63663;BME280;49815;51.618;0.336;2022-12-07T09:43:20;101467.18;;;1.27;53.22
63663;BME280;49815;51.618;0.336;2022-12-07T09:48:16;101472.56;;;2.71;50.22
63663;BME280;49815;51.618;0.336;2022-12-07T09:50:35;101474.29;;;1.68;51.72
63663;BME280;49815;51.618;0.336;2022-12-07T09:53:06;101472.72;;;1.48;52.52
63663;BME280;49815;51.618;0.336;2022-12-07T09:57:53;101467.64;;;2.21;49.53
63663;BME280;49815;51.618;0.336;2022-12-07T10:02:44;101464.87;;;1.57;53.15
63663;BME280;49815;51.618;0.336;2022-12-07T10:05:13;101461.95;;;1.27;52.73
63663;BME280;49815;51.618;0.336;2022-12-07T10:10:01;101462.71;;;3.18;50.64
63663;BME280;49815;51.618;0.336;2022-12-07T10:14:56;101466.92;;;1.70;52.93
63663;BME280;49815;51.618;0.336;2022-12-07T10:17:28;101462.12;;;2.00;51.69
63663;BME280;49815;51.618;0.336;2022-12-07T10:19:41;101457.54;;;2.16;51.86
63663;BME280;49815;51.618;0.336;2022-12-07T10:22:11;101453.57;;;1.51;51.18
63663;BME280;49815;51.618;0.336;2022-12-07T10:24:32;101452.35;;;1.48;52.42
63663;BME280;49815;51.618;0.336;2022-12-07T10:26:59;101447.82;;;1.22;51.35
63663;BME280;49815;51.618;0.336;2022-12-07T10:31:54;101441.91;;;2.84;49.68
63663;BME280;49815;51.618;0.336;2022-12-07T10:34:21;101449.65;;;2.45;50.17
63663;BME280;49815;51.618;0.336;2022-12-07T10:39:13;101440.22;;;1.59;50.82
63663;BME280;49815;51.618;0.336;2022-12-07T10:41:31;101440.68;;;1.71;53.03
63663;BME280;49815;51.618;0.336;2022-12-07T10:43:57;101441.91;;;2.02;53.07
63663;BME280;49815;51.618;0.336;2022-12-07T10:46:38;101443.05;;;-0.60;56.30
63663;BME280;49815;51.618;0.336;2022-12-07T10:51:18;101436.23;;;-1.94;62.73
63663;BME280;49815;51.618;0.336;2022-12-07T10:53:48;101430.08;;;-0.60;60.62
63663;BME280;49815;51.618;0.336;2022-12-07T10:58:44;101426.26;;;-1.08;61.58
63663;BME280;49815;51.618;0.336;2022-12-07T11:01:00;101415.06;;;-0.08;58.85
63663;BME280;49815;51.618;0.336;2022-12-07T11:05:51;101397.64;;;1.69;52.90
63663;BME280;49815;51.618;0.336;2022-12-07T11:08:19;101407.81;;;-1.19;59.32
63663;BME280;49815;51.618;0.336;2022-12-07T11:10:43;101399.27;;;1.21;56.48
63663;BME280;49815;51.618;0.336;2022-12-07T11:20:34;101389.43;;;1.25;54.20
63663;BME280;49815;51.618;0.336;2022-12-07T11:25:20;101385.87;;;1.21;55.05
63663;BME280;49815;51.618;0.336;2022-12-07T11:32:41;101381.06;;;0.70;54.87
63663;BME280;49815;51.618;0.336;2022-12-07T11:35:01;101380.64;;;-0.38;59.04
63663;BME280;49815;51.618;0.336;2022-12-07T11:37:23;101383.49;;;-1.40;60.25
63663;BME280;49815;51.618;0.336;2022-12-07T11:42:13;101368.64;;;-0.28;59.39
63663;BME280;49815;51.618;0.336;2022-12-07T11:44:42;101366.15;;;0.14;57.82
63663;BME280;49815;51.618;0.336;2022-12-07T11:51:56;101353.18;;;0.19;59.07
63663;BME280;49815;51.618;0.336;2022-12-07T11:56:44;101338.37;;;0.68;56.26
63663;BME280;49815;51.618;0.336;2022-12-07T11:59:16;101338.13;;;0.11;58.88
63663;BME280;49815;51.618;0.336;2022-12-07T12:01:42;101333.40;;;0.81;55.75
63663;BME280;49815;51.618;0.336;2022-12-07T12:04:05;101330.13;;;1.41;53.53
63663;BME280;49815;51.618;0.336;2022-12-07T12:08:58;101322.93;;;1.00;54.33
63663;BME280;49815;51.618;0.336;2022-12-07T12:11:27;101323.17;;;1.27;53.67
63663;BME280;49815;51.618;0.336;2022-12-07T12:16:20;101322.79;;;-0.00;57.97
63663;BME280;49815;51.618;0.336;2022-12-07T12:18:45;101313.93;;;0.66;58.27
63663;BME280;49815;51.618;0.336;2022-12-07T12:25:51;101307.63;;;2.64;51.76
63663;BME280;49815;51.618;0.336;2022-12-07T12:28:21;101310.56;;;0.37;56.29
63663;BME280;49815;51.618;0.336;2022-12-07T12:30:41;101312.15;;;0.26;59.57
63663;BME280;49815;51.618;0.336;2022-12-07T12:33:13;101310.51;;;0.06;59.83
63663;BME280;49815;51.618;0.336;2022-12-07T12:35:34;101298.57;;;0.86;55.54
63663;BME280;49815;51.618;0.336;2022-12-07T12:42:51;101293.83;;;1.91;52.72
63663;BME280;49815;51.618;0.336;2022-12-07T12:45:21;101285.54;;;1.39;55.61
63663;BME280;49815;51.618;0.336;2022-12-07T12:50:19;101297.62;;;-1.35;63.54
63663;BME280;49815;51.618;0.336;2022-12-07T12:57:28;101284.70;;;0.20;58.26
63663;BME280;49815;51.618;0.336;2022-12-07T13:07:12;101266.24;;;0.61;58.86
63663;BME280;49815;51.618;0.336;2022-12-07T13:12:00;101267.59;;;1.13;57.76
63663;BME280;49815;51.618;0.336;2022-12-07T13:16:46;101260.21;;;1.47;55.03
63663;BME280;49815;51.618;0.336;2022-12-07T13:29:05;101253.54;;;2.28;53.93
63663;BME280;49815;51.618;0.336;2022-12-07T13:33:47;101253.21;;;1.45;53.97
63663;BME280;49815;51.618;0.336;2022-12-07T13:43:28;101235.83;;;1.49;54.78
63663;BME280;49815;51.618;0.336;2022-12-07T13:45:57;101226.31;;;1.41;54.67
63663;BME280;49815;51.618;0.336;2022-12-07T13:58:01;101214.02;;;1.51;53.25
63663;BME280;49815;51.618;0.336;2022-12-07T14:00:28;101201.48;;;2.72;52.54
63663;BME280;49815;51.618;0.336;2022-12-07T14:02:56;101194.18;;;3.05;51.42
63663;BME280;49815;51.618;0.336;2022-12-07T14:12:36;101191.15;;;0.07;56.33
63663;BME280;49815;51.618;0.336;2022-12-07T14:15:01;101192.77;;;0.81;56.42
63663;BME280;49815;51.618;0.336;2022-12-07T14:24:42;101183.29;;;1.09;55.38
63663;BME280;49815;51.618;0.336;2022-12-07T14:27:17;101182.98;;;0.82;56.46
63663;BME280;49815;51.618;0.336;2022-12-07T14:34:23;101173.79;;;1.37;53.98
63663;BME280;49815;51.618;0.336;2022-12-07T14:44:10;101171.57;;;1.23;51.91
63663;BME280;49815;51.618;0.336;2022-12-07T14:46:31;101176.90;;;-0.08;55.66
63663;BME280;49815;51.618;0.336;2022-12-07T14:51:23;101163.27;;;1.52;52.53
63663;BME280;49815;51.618;0.336;2022-12-07T14:53:50;101157.10;;;2.80;50.60
63663;BME280;49815;51.618;0.336;2022-12-07T14:56:12;101152.83;;;2.63;50.54
63663;BME280;49815;51.618;0.336;2022-12-07T14:58:38;101159.03;;;1.56;52.09
63663;BME280;49815;51.618;0.336;2022-12-07T15:03:28;101155.94;;;1.16;53.02
63663;BME280;49815;51.618;0.336;2022-12-07T15:05:54;101146.81;;;2.52;51.05
63663;BME280;49815;51.618;0.336;2022-12-07T15:15:35;101137.35;;;3.13;49.79
63663;BME280;49815;51.618;0.336;2022-12-07T15:18:02;101136.89;;;2.97;49.17
63663;BME280;49815;51.618;0.336;2022-12-07T15:20:27;101135.39;;;2.38;49.10